Time;durP1;ratioP1;P1;durP2;ratioP2;P2;SDS_P1;SDS_P2;PMS_P1;PMS_P2;Temp;Humidity;BMP_temperature;BMP_pressure;BME280_temperature;BME280_humidity;BME280_pressure;Samples;Min_cycle;Max_cycle;Signal;HPM_P1;HPM_P2
2023/04/29 00:00:32;;;;;;;49.20;31.53;;;12.20;94.10;;;;;;4997059;28;20167;-91
2023/04/29 00:02:59;;;;;;;43.47;30.33;;;12.20;95.40;;;;;;5009641;28;20168;-91
2023/04/29 00:05:28;;;;;;;48.53;32.93;;;12.10;96.90;;;;;;4995121;28;20179;-92
2023/04/29 00:07:54;;;;;;;49.17;33.00;;;12.00;97.80;;;;;;4978757;28;20516;-92
2023/04/29 00:10:19;;;;;;;49.87;35.27;;;11.80;97.60;;;;;;4998304;28;20197;-92
2023/04/29 00:12:45;;;;;;;47.20;33.63;;;11.80;99.60;;;;;;5017338;28;20654;-92
2023/04/29 00:15:12;;;;;;;50.60;33.33;;;11.80;99.40;;;;;;5003985;28;20175;-93
2023/04/29 00:17:39;;;;;;;47.03;29.27;;;11.70;99.50;;;;;;5008480;28;20217;-90
2023/04/29 00:20:06;;;;;;;46.77;32.57;;;11.50;99.00;;;;;;5011511;28;20214;-92
2023/04/29 00:22:33;;;;;;;45.97;30.20;;;11.40;99.90;;;;;;5009130;28;20175;-92
2023/04/29 00:24:59;;;;;;;45.77;29.43;;;11.40;99.90;;;;;;5003577;28;20166;-92
2023/04/29 00:27:24;;;;;;;46.87;30.37;;;11.30;99.90;;;;;;5017961;28;20179;-92
2023/04/29 00:29:50;;;;;;;41.97;29.97;;;11.20;99.90;;;;;;5017385;28;20190;-91
2023/04/29 00:32:16;;;;;;;38.83;28.47;;;11.20;99.90;;;;;;5013296;28;20349;-92
2023/04/29 00:34:45;;;;;;;44.57;28.57;;;11.30;99.90;;;;;;4998759;28;20195;-92
2023/04/29 00:37:11;;;;;;;43.07;30.47;;;11.20;99.90;;;;;;4997733;28;20203;-92
2023/04/29 00:39:36;;;;;;;44.50;30.13;;;11.30;99.90;;;;;;4995460;28;20175;-93
2023/04/29 00:42:03;;;;;;;37.63;26.93;;;11.40;99.40;;;;;;4996280;28;20229;-93
2023/04/29 00:44:30;;;;;;;38.10;27.93;;;11.30;98.60;;;;;;4997434;28;20182;-93
2023/04/29 00:46:56;;;;;;;42.77;29.37;;;11.40;98.40;;;;;;4981648;28;20183;-92
2023/04/29 00:49:22;;;;;;;43.97;29.03;;;11.30;97.40;;;;;;4995869;28;20218;-94
2023/04/29 00:51:49;;;;;;;40.53;27.57;;;11.40;97.60;;;;;;4999006;28;20183;-93
2023/04/29 00:54:15;;;;;;;41.43;28.03;;;11.40;95.50;;;;;;5010159;28;20202;-91
2023/04/29 00:56:45;;;;;;;39.73;26.73;;;11.40;95.80;;;;;;5001414;28;20186;-93
2023/04/29 00:59:15;;;;;;;38.80;26.73;;;11.40;94.60;;;;;;4996154;28;20186;-93
2023/04/29 01:01:43;;;;;;;40.73;28.57;;;11.20;95.70;;;;;;4997728;28;20187;-94
2023/04/29 01:04:09;;;;;;;39.33;27.93;;;11.20;97.40;;;;;;4997305;28;20258;-92
2023/04/29 01:06:40;;;;;;;41.77;28.23;;;11.20;97.30;;;;;;4997343;28;20217;-92
2023/04/29 01:09:22;;;;;;;39.23;26.60;;;11.40;95.80;;;;;;5007489;28;20238;-91
2023/04/29 01:12:22;;;;;;;38.50;26.13;;;11.40;94.40;;;;;;4998593;28;20175;-92
2023/04/29 01:15:01;;;;;;;37.70;26.73;;;11.40;93.90;;;;;;4998562;28;20666;-91
2023/04/29 01:17:36;;;;;;;39.73;28.57;;;11.40;95.20;;;;;;4995964;28;20210;-92
2023/04/29 01:20:03;;;;;;;34.53;25.57;;;11.30;95.70;;;;;;4998091;28;20261;-91
2023/04/29 01:22:30;;;;;;;44.33;29.73;;;11.30;95.50;;;;;;4999588;28;20255;-93
2023/04/29 01:24:59;;;;;;;43.50;29.10;;;11.30;96.50;;;;;;5010534;28;20757;-92
2023/04/29 01:27:31;;;;;;;44.90;30.03;;;11.30;95.40;;;;;;5012026;28;20207;-92
2023/04/29 01:30:26;;;;;;;49.17;29.43;;;11.40;94.80;;;;;;5017984;28;20179;-93
2023/04/29 01:33:11;;;;;;;39.73;27.73;;;11.40;93.70;;;;;;5016780;28;20195;-92
2023/04/29 01:35:57;;;;;;;39.53;27.60;;;11.20;93.90;;;;;;5016810;28;20203;-92
2023/04/29 01:38:41;;;;;;;40.37;26.77;;;11.20;95.40;;;;;;5013201;28;20585;-93
2023/04/29 01:41:16;;;;;;;45.10;29.47;;;11.30;94.50;;;;;;4998849;28;20186;-94
2023/04/29 01:43:47;;;;;;;44.83;29.07;;;11.30;93.90;;;;;;5004932;28;20237;-94
2023/04/29 01:46:18;;;;;;;44.50;29.20;;;11.20;95.00;;;;;;5005522;28;20175;-94
2023/04/29 01:48:45;;;;;;;46.13;29.93;;;11.10;96.80;;;;;;5002201;28;20618;-94
2023/04/29 01:51:11;;;;;;;49.10;29.83;;;11.00;97.10;;;;;;4997706;28;20262;-93
2023/04/29 01:53:39;;;;;;;47.10;30.23;;;10.90;96.80;;;;;;4999045;28;20249;-92
2023/04/29 01:56:06;;;;;;;46.10;31.27;;;10.90;98.00;;;;;;5006475;28;20194;-93
2023/04/29 01:58:32;;;;;;;47.87;31.00;;;10.90;97.30;;;;;;5012430;28;20208;-92
2023/04/29 02:00:57;;;;;;;45.77;32.67;;;10.90;98.50;;;;;;5018357;28;20218;-92
2023/04/29 02:03:26;;;;;;;47.60;33.40;;;10.80;97.60;;;;;;5018170;28;20155;-91
2023/04/29 02:05:56;;;;;;;47.17;32.37;;;10.90;97.10;;;;;;5018856;28;20198;-91
2023/04/29 02:08:27;;;;;;;49.63;32.27;;;11.00;95.00;;;;;;5018252;28;20186;-93
2023/04/29 02:10:58;;;;;;;48.83;32.00;;;10.90;94.50;;;;;;5014268;28;20179;-94
2023/04/29 02:13:36;;;;;;;44.03;32.33;;;10.90;95.80;;;;;;5015306;28;20173;-92
2023/04/29 02:16:18;;;;;;;46.50;32.50;;;10.90;96.70;;;;;;5017911;28;20198;-91
2023/04/29 02:19:02;;;;;;;44.43;31.93;;;11.00;96.70;;;;;;5005361;28;20215;-94
2023/04/29 02:21:31;;;;;;;49.20;32.30;;;11.00;95.90;;;;;;4998003;28;20205;-91
2023/04/29 02:23:57;;;;;;;49.47;31.77;;;11.10;94.20;;;;;;4995497;28;20202;-92
2023/04/29 02:26:23;;;;;;;53.50;35.07;;;10.90;95.70;;;;;;4994732;28;20577;-93
2023/04/29 02:28:51;;;;;;;48.70;34.20;;;10.80;98.20;;;;;;4995475;28;20187;-94
2023/04/29 02:31:17;;;;;;;52.87;33.13;;;10.80;99.10;;;;;;4996133;28;20175;-93
2023/04/29 02:33:43;;;;;;;46.57;32.70;;;10.70;99.30;;;;;;4995360;28;20171;-92
2023/04/29 02:36:09;;;;;;;43.20;29.53;;;10.60;99.90;;;;;;4994851;28;20186;-92
2023/04/29 02:38:39;;;;;;;37.37;28.63;;;10.60;99.90;;;;;;5003039;28;20206;-93
2023/04/29 02:41:05;;;;;;;35.23;27.07;;;10.60;99.40;;;;;;5016547;28;20178;-92
2023/04/29 02:43:35;;;;;;;33.27;25.30;;;10.40;99.90;;;;;;5002300;28;20589;-93
2023/04/29 02:46:01;;;;;;;35.23;25.23;;;10.40;99.90;;;;;;5000715;28;20175;-92
2023/04/29 02:48:27;;;;;;;29.17;21.23;;;10.30;99.90;;;;;;5001447;28;20646;-92
2023/04/29 02:50:53;;;;;;;30.83;23.13;;;10.30;99.60;;;;;;4999430;28;20177;-93
2023/04/29 02:53:19;;;;;;;26.77;20.97;;;10.30;99.30;;;;;;5005317;28;20190;-93
2023/04/29 02:55:46;;;;;;;31.80;22.37;;;10.30;97.30;;;;;;5016668;28;20195;-94
2023/04/29 02:58:11;;;;;;;30.07;20.00;;;10.30;97.60;;;;;;5018587;28;20257;-92
2023/04/29 03:00:40;;;;;;;26.07;21.43;;;10.30;97.10;;;;;;5019437;28;20151;-90
2023/04/29 03:03:06;;;;;;;28.60;21.50;;;10.30;97.70;;;;;;5013730;28;20179;-93
2023/04/29 03:05:33;;;;;;;25.50;20.73;;;10.40;97.60;;;;;;5003343;28;20262;-93
2023/04/29 03:08:02;;;;;;;26.07;20.67;;;10.40;96.60;;;;;;5009231;28;20210;-92
2023/04/29 03:10:28;;;;;;;29.10;21.37;;;10.40;96.40;;;;;;5008739;28;20171;-92
2023/04/29 03:12:57;;;;;;;27.03;20.43;;;10.50;96.30;;;;;;5001337;28;20253;-93
2023/04/29 03:15:26;;;;;;;26.47;20.80;;;10.40;96.20;;;;;;4999038;28;20178;-93
2023/04/29 03:17:56;;;;;;;27.80;20.67;;;10.40;96.40;;;;;;5011331;28;20217;-93
2023/04/29 03:20:22;;;;;;;24.03;20.50;;;10.40;96.10;;;;;;5010072;28;20170;-93
2023/04/29 03:22:49;;;;;;;26.30;19.47;;;10.80;94.60;;;;;;4998761;28;20175;-94
2023/04/29 03:25:15;;;;;;;26.60;20.13;;;10.70;93.30;;;;;;4998050;28;20550;-92
2023/04/29 03:27:40;;;;;;;24.53;20.67;;;10.60;93.90;;;;;;5003500;28;20187;-91
2023/04/29 03:30:10;;;;;;;26.47;20.20;;;10.50;94.50;;;;;;5020204;28;20231;-94
2023/04/29 03:32:35;;;;;;;27.90;19.87;;;10.60;94.70;;;;;;5015085;28;20182;-94
2023/04/29 03:35:04;;;;;;;25.60;20.50;;;10.50;94.90;;;;;;5012713;28;20179;-91
2023/04/29 03:37:29;;;;;;;26.73;18.60;;;10.50;96.00;;;;;;5020374;28;20206;-93
2023/04/29 03:39:55;;;;;;;25.47;19.17;;;10.50;96.10;;;;;;5005543;28;20474;-93
2023/04/29 03:42:22;;;;;;;26.40;19.50;;;10.50;95.40;;;;;;5003405;28;20526;-92
2023/04/29 03:44:51;;;;;;;23.80;17.90;;;10.50;95.50;;;;;;4998517;28;20194;-93
2023/04/29 03:47:17;;;;;;;24.10;17.90;;;10.60;94.30;;;;;;4999332;28;20178;-92
2023/04/29 03:49:43;;;;;;;21.47;17.77;;;10.60;93.90;;;;;;4996821;28;20172;-94
2023/04/29 03:52:11;;;;;;;25.13;18.30;;;10.60;94.10;;;;;;4981868;28;20175;-93
2023/04/29 03:54:37;;;;;;;26.43;18.77;;;10.70;93.40;;;;;;4999663;28;20187;-93
2023/04/29 03:57:03;;;;;;;25.03;18.97;;;10.60;92.30;;;;;;5011831;28;20174;-93
2023/04/29 03:59:32;;;;;;;26.97;19.50;;;10.50;93.90;;;;;;5019974;28;20159;-93
2023/04/29 04:01:58;;;;;;;25.70;20.17;;;10.50;93.80;;;;;;5020006;28;20164;-93
2023/04/29 04:04:24;;;;;;;27.30;20.23;;;10.60;94.50;;;;;;5006872;28;20183;-94
2023/04/29 04:06:52;;;;;;;28.07;21.63;;;10.50;94.70;;;;;;4998655;28;20202;-94
2023/04/29 04:09:18;;;;;;;26.77;22.10;;;10.40;95.20;;;;;;4998161;28;20179;-94
2023/04/29 04:11:44;;;;;;;27.77;21.07;;;10.50;95.00;;;;;;4996100;28;20175;-92
2023/04/29 04:14:10;;;;;;;27.93;20.80;;;10.60;94.40;;;;;;4979925;28;20182;-93
2023/04/29 04:16:37;;;;;;;29.20;21.63;;;10.60;94.80;;;;;;4997557;28;20175;-92
2023/04/29 04:19:07;;;;;;;28.70;21.43;;;10.60;94.50;;;;;;4996676;28;20210;-93
2023/04/29 04:21:36;;;;;;;26.23;21.13;;;10.70;95.00;;;;;;4995750;28;20651;-94
2023/04/29 04:24:02;;;;;;;33.73;23.77;;;10.50;94.90;;;;;;4997821;28;20713;-93
2023/04/29 04:26:27;;;;;;;32.93;22.33;;;10.60;95.40;;;;;;4997702;28;20200;-94
2023/04/29 04:28:53;;;;;;;35.20;24.77;;;10.60;94.10;;;;;;4996195;28;20192;-94
2023/04/29 04:31:19;;;;;;;35.33;24.47;;;10.60;95.10;;;;;;4995897;28;20210;-93
2023/04/29 04:33:45;;;;;;;34.43;24.73;;;10.50;96.00;;;;;;4997563;28;20182;-94
2023/04/29 04:36:11;;;;;;;29.70;24.20;;;10.50;97.10;;;;;;4995767;28;20171;-93
2023/04/29 04:38:36;;;;;;;34.03;26.40;;;10.60;97.10;;;;;;4995440;28;20218;-93
2023/04/29 04:41:06;;;;;;;35.67;26.70;;;10.50;97.10;;;;;;4997684;28;20179;-94
2023/04/29 04:43:32;;;;;;;35.30;25.47;;;10.40;96.40;;;;;;4996541;28;20206;-94
2023/04/29 04:45:58;;;;;;;35.43;24.60;;;10.40;97.20;;;;;;4996401;28;20201;-93
2023/04/29 04:48:24;;;;;;;39.23;25.03;;;10.30;97.10;;;;;;4997799;28;20653;-94
2023/04/29 04:50:50;;;;;;;37.53;24.90;;;10.10;99.10;;;;;;4996632;28;20180;-92
2023/04/29 04:53:16;;;;;;;35.87;26.97;;;10.20;99.90;;;;;;5003140;28;20174;-91
2023/04/29 04:55:42;;;;;;;36.50;25.10;;;10.20;99.90;;;;;;5010443;28;20171;-95
2023/04/29 04:58:09;;;;;;;33.37;23.80;;;10.10;99.90;;;;;;4998263;28;20217;-93
2023/04/29 05:00:35;;;;;;;34.97;25.63;;;10.10;99.90;;;;;;5004474;28;20206;-93
2023/04/29 05:03:04;;;;;;;36.07;24.67;;;10.00;99.90;;;;;;4998796;28;20175;-94
2023/04/29 05:05:33;;;;;;;30.27;23.53;;;10.00;99.90;;;;;;5011605;28;20182;-93
2023/04/29 05:08:06;;;;;;;30.47;22.70;;;10.00;99.90;;;;;;5000449;28;20198;-92
2023/04/29 05:10:35;;;;;;;28.87;21.80;;;10.00;99.90;;;;;;5018689;28;20178;-92
2023/04/29 05:13:07;;;;;;;26.33;20.27;;;9.90;99.90;;;;;;5007178;28;20191;-92
2023/04/29 05:15:35;;;;;;;31.60;22.73;;;9.80;99.90;;;;;;5017998;28;20191;-94
2023/04/29 05:18:03;;;;;;;29.00;21.90;;;9.90;99.90;;;;;;4998155;28;20318;-92
2023/04/29 05:20:31;;;;;;;29.53;21.73;;;9.90;99.90;;;;;;4996948;28;20265;-94
2023/04/29 05:22:57;;;;;;;30.47;22.53;;;10.00;99.90;;;;;;4996822;28;20171;-94
2023/04/29 05:25:24;;;;;;;33.43;23.20;;;10.00;99.90;;;;;;4996792;28;20194;-94
2023/04/29 05:27:52;;;;;;;31.20;21.47;;;10.00;99.90;;;;;;4995537;28;20183;-94
2023/04/29 05:30:18;;;;;;;30.30;23.17;;;10.00;99.50;;;;;;4996092;28;20178;-94
2023/04/29 05:32:44;;;;;;;27.33;20.87;;;10.00;99.90;;;;;;4995192;28;20175;-93
2023/04/29 05:35:11;;;;;;;31.60;22.63;;;10.00;99.50;;;;;;4998896;28;20189;-93
2023/04/29 05:37:38;;;;;;;30.73;21.47;;;9.90;99.50;;;;;;4985753;28;20219;-93
2023/04/29 05:40:05;;;;;;;26.23;20.97;;;10.00;99.90;;;;;;5002930;28;20182;-93
2023/04/29 05:42:31;;;;;;;25.83;20.07;;;9.90;99.40;;;;;;5002605;28;20178;-92
2023/04/29 05:44:58;;;;;;;28.97;21.40;;;9.90;99.50;;;;;;5005190;28;20218;-93
2023/04/29 05:47:24;;;;;;;25.63;20.43;;;9.90;99.60;;;;;;5006249;28;20179;-92
2023/04/29 05:49:52;;;;;;;29.20;19.63;;;9.90;99.30;;;;;;5012148;28;20198;-91
2023/04/29 05:52:19;;;;;;;25.33;20.77;;;9.90;99.90;;;;;;5016832;28;20214;-91
2023/04/29 05:54:46;;;;;;;28.20;21.40;;;10.00;99.90;;;;;;5018667;28;20199;-91
2023/04/29 05:57:12;;;;;;;30.53;22.37;;;10.00;99.90;;;;;;5018329;28;20181;-93
2023/04/29 05:59:38;;;;;;;27.17;21.67;;;10.00;99.80;;;;;;5017886;28;20174;-92
2023/04/29 06:02:03;;;;;;;28.23;22.87;;;10.00;99.90;;;;;;5007696;28;20198;-94
2023/04/29 06:04:29;;;;;;;30.23;22.70;;;10.00;99.90;;;;;;4998832;28;20262;-94
2023/04/29 06:07:01;;;;;;;29.43;21.23;;;10.20;99.70;;;;;;4998038;28;20183;-93
2023/04/29 06:09:28;;;;;;;27.53;20.57;;;10.10;98.80;;;;;;4996123;28;20199;-93
2023/04/29 06:11:53;;;;;;;24.80;18.47;;;10.10;98.10;;;;;;4995258;28;20238;-92
2023/04/29 06:14:20;;;;;;;29.63;19.53;;;10.10;97.70;;;;;;4996890;28;20179;-93
2023/04/29 06:16:47;;;;;;;27.10;17.83;;;10.00;98.70;;;;;;4996555;28;20189;-93
2023/04/29 06:19:14;;;;;;;24.30;17.67;;;10.00;97.70;;;;;;4979724;28;20675;-94
2023/04/29 06:21:41;;;;;;;21.07;16.23;;;9.90;98.40;;;;;;4997130;28;20171;-91
2023/04/29 06:24:08;;;;;;;24.20;17.17;;;9.90;98.90;;;;;;5012622;28;20167;-93
2023/04/29 06:26:33;;;;;;;30.57;17.40;;;9.90;97.80;;;;;;5017713;28;20217;-92
2023/04/29 06:28:59;;;;;;;21.37;15.63;;;9.90;97.40;;;;;;5017960;28;20174;-91
2023/04/29 06:31:31;;;;;;;19.10;15.90;;;9.80;96.90;;;;;;5001174;28;20186;-90
2023/04/29 06:34:07;;;;;;;20.53;16.40;;;9.80;96.60;;;;;;5016789;28;20198;-93
2023/04/29 06:36:35;;;;;;;26.23;18.00;;;9.90;96.70;;;;;;5002715;28;20198;-93
2023/04/29 06:39:07;;;;;;;25.33;18.20;;;9.90;96.50;;;;;;4996788;28;20353;-94
2023/04/29 06:41:33;;;;;;;23.60;19.97;;;10.00;96.40;;;;;;4998498;28;20233;-92
2023/04/29 06:43:59;;;;;;;24.37;19.03;;;9.90;96.30;;;;;;4995726;28;20220;-92
2023/04/29 06:46:26;;;;;;;25.40;19.53;;;10.00;95.90;;;;;;5005002;28;20178;-92
2023/04/29 06:48:52;;;;;;;28.77;20.23;;;10.00;94.90;;;;;;5016007;28;20163;-93
2023/04/29 06:51:17;;;;;;;26.43;19.83;;;10.00;95.00;;;;;;5003908;28;20175;-93
2023/04/29 06:53:43;;;;;;;28.23;22.10;;;9.90;95.20;;;;;;5012085;28;20189;-93
2023/04/29 06:56:10;;;;;;;27.87;21.50;;;9.90;95.90;;;;;;4999065;28;20257;-92
2023/04/29 06:58:39;;;;;;;25.17;21.53;;;10.10;95.40;;;;;;5004443;28;20218;-92
2023/04/29 07:01:06;;;;;;;29.67;22.53;;;10.10;95.00;;;;;;5008119;28;20620;-91
2023/04/29 07:03:32;;;;;;;31.73;23.40;;;10.10;93.80;;;;;;5003303;28;20609;-94
2023/04/29 07:05:58;;;;;;;32.73;22.33;;;10.00;94.20;;;;;;5003298;28;20202;-91
2023/04/29 07:08:24;;;;;;;28.40;22.13;;;9.90;95.70;;;;;;5014758;28;20639;-92
2023/04/29 07:10:56;;;;;;;30.77;22.87;;;9.90;97.50;;;;;;4996311;28;20176;-92
2023/04/29 07:13:24;;;;;;;24.70;22.03;;;9.90;97.20;;;;;;4995774;28;20179;-92
2023/04/29 07:15:50;;;;;;;38.97;24.13;;;9.90;96.30;;;;;;4995057;28;20192;-94
2023/04/29 07:18:16;;;;;;;30.43;25.10;;;9.90;96.90;;;;;;4994088;28;20281;-92
2023/04/29 07:20:43;;;;;;;31.73;23.73;;;9.90;98.50;;;;;;4995636;28;20171;-92
2023/04/29 07:23:10;;;;;;;34.43;24.77;;;9.90;99.40;;;;;;4994968;28;20207;-93
2023/04/29 07:25:36;;;;;;;38.67;26.33;;;10.10;99.20;;;;;;4982310;28;20214;-92
2023/04/29 07:28:02;;;;;;;31.60;24.60;;;10.10;98.30;;;;;;4998281;28;20171;-93
2023/04/29 07:30:27;;;;;;;33.27;25.97;;;10.20;97.40;;;;;;4983645;28;20210;-91
2023/04/29 07:32:56;;;;;;;36.33;26.43;;;10.10;97.20;;;;;;4999355;28;20718;-92
2023/04/29 07:35:22;;;;;;;35.00;28.97;;;10.10;97.20;;;;;;4996791;28;20191;-92
2023/04/29 07:37:48;;;;;;;31.87;26.43;;;10.20;97.70;;;;;;4996720;28;20240;-92
2023/04/29 07:40:15;;;;;;;37.57;28.03;;;10.10;97.40;;;;;;4996419;28;20635;-92
2023/04/29 07:42:40;;;;;;;36.40;28.63;;;10.20;98.80;;;;;;4998272;28;20229;-92
2023/04/29 07:45:06;;;;;;;39.43;27.90;;;10.30;98.60;;;;;;5009054;28;20198;-93
2023/04/29 07:47:32;;;;;;;34.37;28.80;;;10.30;96.80;;;;;;5014143;28;20190;-91
2023/04/29 07:49:58;;;;;;;37.40;29.67;;;10.40;96.80;;;;;;5015335;28;20179;-89
2023/04/29 07:52:42;;;;;;;35.23;29.07;;;10.40;95.30;;;;;;5009549;28;20778;-87
2023/04/29 07:55:08;;;;;;;36.43;27.43;;;10.40;95.60;;;;;;4999522;28;20290;-90
2023/04/29 07:57:36;;;;;;;39.73;29.60;;;10.40;94.10;;;;;;5004493;28;20329;-89
2023/04/29 08:00:02;;;;;;;36.10;29.90;;;10.30;94.70;;;;;;5014863;28;20162;-87
2023/04/29 08:02:31;;;;;;;35.20;28.43;;;10.30;94.50;;;;;;5004842;28;20194;-89
2023/04/29 08:04:57;;;;;;;36.50;29.13;;;10.40;94.10;;;;;;5001091;28;20209;-89
2023/04/29 08:07:22;;;;;;;33.07;26.87;;;10.50;92.80;;;;;;4999627;28;20183;-91
2023/04/29 08:09:48;;;;;;;33.20;26.77;;;10.60;91.80;;;;;;4999833;28;20175;-90
2023/04/29 08:12:14;;;;;;;33.10;26.47;;;10.40;91.60;;;;;;5007778;28;20659;-88
2023/04/29 08:14:39;;;;;;;37.43;28.80;;;10.40;91.90;;;;;;5015693;28;20187;-88
2023/04/29 08:17:06;;;;;;;32.10;27.60;;;10.50;91.90;;;;;;5015942;28;20163;-88
2023/04/29 08:19:31;;;;;;;36.23;28.87;;;10.60;91.00;;;;;;5016629;28;20203;-91
2023/04/29 08:21:57;;;;;;;34.27;28.67;;;10.80;87.90;;;;;;5005555;28;20178;-88
2023/04/29 08:24:29;;;;;;;36.33;29.00;;;11.00;86.10;;;;;;5002090;28;20190;-88
2023/04/29 08:27:00;;;;;;;35.10;29.10;;;11.10;80.90;;;;;;4998456;28;20213;-88
2023/04/29 08:29:26;;;;;;;32.93;27.60;;;11.20;78.40;;;;;;4999775;28;20190;-90
2023/04/29 08:31:52;;;;;;;32.70;28.03;;;11.20;74.60;;;;;;5000983;28;20186;-92
2023/04/29 08:34:18;;;;;;;32.43;26.57;;;11.20;72.40;;;;;;4999567;28;20202;-89
2023/04/29 08:36:44;;;;;;;34.13;27.03;;;11.30;71.20;;;;;;4998980;28;20198;-90
2023/04/29 08:39:09;;;;;;;30.97;25.77;;;11.50;71.20;;;;;;4997039;28;20309;-89
2023/04/29 08:41:36;;;;;;;34.87;25.60;;;11.60;63.40;;;;;;4999617;28;20522;-85
2023/04/29 08:44:02;;;;;;;31.90;23.83;;;11.80;60.80;;;;;;4997155;28;20179;-87
2023/04/29 08:46:29;;;;;;;30.37;24.30;;;11.90;56.80;;;;;;4995997;28;20262;-86
2023/04/29 08:48:56;;;;;;;27.77;22.13;;;11.90;56.30;;;;;;4998219;28;20284;-86
2023/04/29 08:51:23;;;;;;;27.33;21.87;;;11.60;55.60;;;;;;4981404;28;20187;-89
2023/04/29 08:53:49;;;;;;;24.90;21.87;;;11.50;59.20;;;;;;4996849;28;20189;-87
2023/04/29 08:56:19;;;;;;;27.30;20.47;;;11.50;62.80;;;;;;4998372;28;20176;-90
2023/04/29 08:58:46;;;;;;;25.47;22.73;;;11.40;59.30;;;;;;5000041;28;20218;-90
2023/04/29 09:01:13;;;;;;;27.07;22.47;;;11.70;59.40;;;;;;4995396;28;20576;-88
2023/04/29 09:03:57;;;;;;;30.17;22.83;;;11.70;58.00;;;;;;5004397;28;20262;-90
2023/04/29 09:06:23;;;;;;;29.57;21.23;;;11.50;60.80;;;;;;5000065;28;20175;-89
2023/04/29 09:08:50;;;;;;;28.03;21.97;;;11.60;62.70;;;;;;5000612;28;20182;-88
2023/04/29 09:11:20;;;;;;;30.27;23.40;;;11.70;59.80;;;;;;5021877;28;20175;-88
2023/04/29 09:13:49;;;;;;;27.87;22.50;;;11.80;58.70;;;;;;5016236;28;20235;-91
2023/04/29 09:16:15;;;;;;;26.83;22.57;;;11.60;60.60;;;;;;5007025;28;20182;-89
2023/04/29 09:19:01;;;;;;;28.43;21.47;;;11.70;63.20;;;;;;5000528;28;20263;-88
2023/04/29 09:21:31;;;;;;;31.57;22.80;;;11.60;59.80;;;;;;5016221;28;20170;-87
2023/04/29 09:24:01;;;;;;;27.37;23.00;;;11.50;57.80;;;;;;5001199;28;20198;-90
2023/04/29 09:26:33;;;;;;;32.87;23.20;;;11.60;59.80;;;;;;5009522;28;20175;-85
2023/04/29 09:29:14;;;;;;;28.33;22.27;;;11.80;56.20;;;;;;5007556;28;20214;-87
2023/04/29 09:31:41;;;;;;;27.83;22.67;;;12.00;53.30;;;;;;4987981;28;20184;-87
2023/04/29 09:34:08;;;;;;;28.30;22.80;;;11.90;51.60;;;;;;4997559;28;20195;-87
2023/04/29 09:36:57;;;;;;;29.40;22.30;;;11.80;52.70;;;;;;4983936;28;20177;-86
2023/04/29 09:39:23;;;;;;;27.87;22.87;;;11.80;51.60;;;;;;4977375;28;20212;-88
2023/04/29 09:41:52;;;;;;;25.83;21.93;;;11.70;54.00;;;;;;4976985;28;20235;-86
2023/04/29 09:44:22;;;;;;;31.90;23.80;;;11.60;55.00;;;;;;4980082;28;20175;-88
2023/04/29 09:46:54;;;;;;;32.07;24.17;;;11.60;59.10;;;;;;4991240;28;20153;-90
2023/04/29 09:49:28;;;;;;;29.50;24.07;;;11.70;59.40;;;;;;5004332;28;20170;-88
2023/04/29 09:52:02;;;;;;;30.67;23.93;;;11.90;56.40;;;;;;5016411;28;20190;-89
2023/04/29 09:54:35;;;;;;;27.50;22.90;;;12.10;55.80;;;;;;5008785;28;20263;-90
2023/04/29 09:57:08;;;;;;;29.03;23.80;;;12.30;50.00;;;;;;5001541;28;20179;-89
2023/04/29 09:59:37;;;;;;;27.40;21.17;;;12.40;46.90;;;;;;5008993;28;20202;-90
2023/04/29 10:02:19;;;;;;;26.83;22.90;;;12.30;40.20;;;;;;5008737;28;20173;-89
2023/04/29 10:04:47;;;;;;;28.07;22.43;;;12.20;41.40;;;;;;4999871;28;20186;-92
2023/04/29 10:07:15;;;;;;;26.27;21.13;;;12.20;43.20;;;;;;5016815;28;20204;-92
2023/04/29 10:09:45;;;;;;;26.57;21.97;;;12.10;45.70;;;;;;5001273;28;20180;-91
2023/04/29 10:12:18;;;;;;;26.67;22.63;;;12.40;44.40;;;;;;4999751;28;20181;-90
2023/04/29 10:14:54;;;;;;;28.93;22.20;;;12.60;38.80;;;;;;4998506;28;20178;-91
2023/04/29 10:17:32;;;;;;;24.30;21.10;;;12.80;32.20;;;;;;4998321;28;20233;-90
2023/04/29 10:20:07;;;;;;;25.80;21.63;;;13.10;28.80;;;;;;4997298;28;20183;-87
2023/04/29 10:22:46;;;;;;;28.53;22.23;;;13.20;23.70;;;;;;4995376;28;20184;-91
2023/04/29 10:25:17;;;;;;;22.73;20.30;;;13.50;16.00;;;;;;5008284;28;20174;-88
2023/04/29 10:27:43;;;;;;;26.13;19.23;;;13.50;12.20;;;;;;5013640;28;20174;-92
2023/04/29 10:30:14;;;;;;;22.40;19.90;;;13.60;5.60;;;;;;4977786;28;20257;-89
2023/04/29 10:32:46;;;;;;;24.77;19.37;;;13.60;5.70;;;;;;4999394;28;20255;-90
2023/04/29 10:35:18;;;;;;;20.20;17.63;;;13.70;2.80;;;;;;5017495;28;20183;-89
2023/04/29 10:37:49;;;;;;;21.33;18.27;;;13.80;1.00;;;;;;5005365;28;20321;-91
2023/04/29 10:40:30;;;;;;;21.30;18.43;;;13.80;1.00;;;;;;5006836;28;20629;-90
2023/04/29 10:42:56;;;;;;;20.03;17.93;;;13.50;1.10;;;;;;5001690;28;20213;-87
2023/04/29 10:45:28;;;;;;;20.93;17.93;;;13.40;6.60;;;;;;4998789;28;20175;-90
2023/04/29 10:48:08;;;;;;;18.63;16.43;;;13.30;5.90;;;;;;5002151;28;20183;-88
2023/04/29 10:50:46;;;;;;;22.50;17.63;;;13.40;4.00;;;;;;4984734;28;20171;-90
2023/04/29 10:53:16;;;;;;;20.23;17.57;;;13.40;4.00;;;;;;5002471;28;20214;-90
2023/04/29 10:55:45;;;;;;;23.23;18.80;;;13.50;3.70;;;;;;5002117;28;20197;-88
2023/04/29 10:58:34;;;;;;;17.90;13.80;;;13.60;1.00;;;;;;5013727;28;20245;-88
2023/04/29 11:01:00;;;;;;;15.73;13.93;;;13.40;1.00;;;;;;5016646;28;20171;-90
2023/04/29 11:03:46;;;;;;;19.40;15.10;;;13.30;1.00;;;;;;4997366;28;20180;-89
2023/04/29 11:06:12;;;;;;;17.80;15.20;;;13.50;1.00;;;;;;5016257;28;20201;-90
2023/04/29 11:08:41;;;;;;;16.50;14.37;;;13.50;1.00;;;;;;5013312;28;20191;-89
2023/04/29 11:11:12;;;;;;;16.47;14.77;;;13.50;1.00;;;;;;5016109;28;20202;-88
2023/04/29 11:14:01;;;;;;;17.30;15.00;;;13.70;1.00;;;;;;5020193;28;20248;-87
2023/04/29 11:16:29;;;;;;;17.33;15.03;;;13.80;1.00;;;;;;5018942;28;20277;-88
2023/04/29 11:19:09;;;;;;;17.87;15.97;;;13.70;1.00;;;;;;5015526;28;20251;-89
2023/04/29 11:21:36;;;;;;;20.63;15.70;;;13.70;1.00;;;;;;5009519;28;20257;-89
2023/04/29 11:24:05;;;;;;;15.67;13.97;;;13.80;1.00;;;;;;5015953;28;20171;-87
2023/04/29 11:26:33;;;;;;;15.37;13.73;;;13.60;1.00;;;;;;5019297;28;20246;-86
2023/04/29 11:28:59;;;;;;;19.40;14.60;;;13.70;1.00;;;;;;5012581;28;20175;-88
2023/04/29 11:32:07;;;;;;;17.47;14.83;;;13.80;1.00;;;;;;5005586;28;20640;-89
2023/04/29 11:34:35;;;;;;;16.30;13.80;;;13.80;1.00;;;;;;5013678;28;20181;-87
2023/04/29 11:37:04;;;;;;;18.23;15.10;;;13.70;1.00;;;;;;5019605;28;20199;-86
2023/04/29 11:39:34;;;;;;;16.20;14.63;;;13.70;1.00;;;;;;5019364;28;20202;-88
2023/04/29 11:42:06;;;;;;;18.33;16.40;;;13.60;1.00;;;;;;5001976;28;20179;-85
2023/04/29 11:44:34;;;;;;;21.63;17.30;;;13.60;1.00;;;;;;5017057;28;20653;-88
2023/04/29 11:47:06;;;;;;;19.70;17.47;;;13.50;1.30;;;;;;5015574;28;20277;-92
2023/04/29 11:49:33;;;;;;;20.13;18.03;;;13.60;3.10;;;;;;5000437;28;20193;-89
2023/04/29 11:52:02;;;;;;;20.00;17.90;;;13.70;1.00;;;;;;4978928;28;20181;-87
2023/04/29 11:54:41;;;;;;;21.57;17.87;;;13.70;1.00;;;;;;4998369;28;20259;-88
2023/04/29 11:57:24;;;;;;;20.60;18.20;;;13.70;1.00;;;;;;4997528;28;20195;-88
2023/04/29 11:59:52;;;;;;;19.33;17.27;;;13.90;1.00;;;;;;4980494;28;20174;-90
2023/04/29 12:02:30;;;;;;;19.67;17.10;;;14.20;1.00;;;;;;4980104;28;20189;-90
2023/04/29 12:04:59;;;;;;;19.50;16.93;;;14.50;1.00;;;;;;4979584;28;20179;-89
2023/04/29 12:07:26;;;;;;;20.17;17.00;;;14.50;1.00;;;;;;4980178;28;20176;-89
2023/04/29 12:09:56;;;;;;;20.43;16.73;;;14.60;1.00;;;;;;4967745;28;20176;-88
2023/04/29 12:12:24;;;;;;;18.10;15.73;;;14.50;1.00;;;;;;5002107;28;20614;-89
2023/04/29 12:14:50;;;;;;;21.37;15.57;;;14.40;1.00;;;;;;5001309;28;20175;-87
2023/04/29 12:17:16;;;;;;;16.43;14.73;;;14.40;1.00;;;;;;4998974;28;20180;-87
2023/04/29 12:19:43;;;;;;;17.20;13.97;;;14.40;1.00;;;;;;4999186;28;20179;-87
2023/04/29 12:22:09;;;;;;;14.97;13.33;;;14.40;1.00;;;;;;4998064;28;20175;-88
2023/04/29 12:24:39;;;;;;;16.73;12.87;;;14.30;1.00;;;;;;4997002;28;20190;-88
2023/04/29 12:27:09;;;;;;;16.40;12.70;;;14.20;1.00;;;;;;4999106;28;20198;-89
2023/04/29 12:29:36;;;;;;;16.03;11.53;;;14.20;1.00;;;;;;4999551;28;20167;-90
2023/04/29 12:32:02;;;;;;;18.97;12.87;;;14.20;1.00;;;;;;5004266;28;20175;-90
2023/04/29 12:34:29;;;;;;;17.90;12.67;;;14.10;1.00;;;;;;5000486;28;20214;-90
2023/04/29 12:36:57;;;;;;;17.40;12.90;;;14.30;1.00;;;;;;4998496;28;20175;-90
2023/04/29 12:39:24;;;;;;;12.90;11.47;;;14.40;1.00;;;;;;5005433;28;20245;-87